Terminal Aerodrome Forecast
Issued by NWS

Home | Current Version | Previous Version | Graphics & Text | Print | Product List | Glossary On
Versions: 1 2 3 4 5 6 7 8 9 10 11 12 13 14 15 16
000
FTUS43 KMPX 271500 AAA
TAFAXN
TAF AMD
KAXN 271535Z 2716/2812 32018G30KT P6SM VCSH SCT015 OVC030
     FM272000 33014G25KT P6SM VCSH SCT015 BKN025 OVC050
     FM280100 35014KT P6SM BKN050
     FM280400 34005KT P6SM SKC=

USA.gov is the U.S. government's official web portal to all federal, state and local government web resources and services.